Accueil
METAR-TAF:

METAR-TAF

Aéroports :

Weeze, Allemagne

Aéroport de Weeze

latitude: 51-36-09N, longitude: 006-08-32E, altitude: 32 m

Observation

Le bulletin a été fait il y a 37 minutes, à 02:50 UTC
Vent 3 kt de direction variable
Température 11°C
Humidité 94%
Pression 1011 hPa
Visibilité 10 km ou plus
pas de nuages en-dessous de 1500 mètres et pas de cumulonimbus.

METAR: EDLV 190250Z VRB03KT CAVOK 11/10 Q1011

Heure: 05:27 (03:27 UTC)

Prévision

Le bulletin a été fait il y a 10 heures et 27 minutes, à 17:00 UTC
Prévision valable du 18 à 18 UTC au 19 à 18 UTC
Vent 3 kt de direction variable
Visibilité 10 km ou plus
pas de nuages en-dessous de 1500 mètres et pas de cumulonimbus.
Temporairement
du 18 à 18 UTC au 19 à 06 UTC
Visibilité: 3000 m
brume
Evoluant progressivement
du 19 à 07 UTC au 19 à 10 UTC
Vent 8 kt de sud-est

TAF: EDLV 181700Z 1818/1918 VRB03KT CAVOK TEMPO 1818/1906 3000 BR BECMG 1907/1910 14008KT

Observations et prévisions météorologiques de plus de 4000 aéroports (messages METAR et TAF).

Les stations disponibles sont représentées par des disques jaunes et rouges sur la carte.

Passer la souris dessus pour voir le nom de la station.

Cliquer dessus pour voir les observations et prévisions météorologiques.

Pour changer de carte: cliquez sur les boutons verts avec une croix noire pour zoomer, sur le bouton vert avec un tiret pour effectuer un zoom arrière, ou sur les flèches vertes pour les cartes adjacentes.


METAR-TAF: